KMEM

Memphis International Airport

Memphis, Tennessee, USA
METAR KMEM 232154Z 33005KT 10SM SCT023 BKN065 BKN250 18/16 A3019 RMK AO2 SLP221 T01780156 $
Observed Flight Rules
Feb-23 @ 21:54 UTC (39 minutes ago) Visual Flight Rules
Wind Visibility Clouds
330° at 5 knots 10 miles
  • Scattered at 2,300' AGL
  • Broken at 6,500' AGL
  • Broken at 25,000' AGL
Temperatures Readings
Current 18°C / 64°F
Dewpoint 16°C / 61°F
Humidity 88%
Altimeter 30.19" Hg
Pressure 1022.1 hPa
Elevation 86
METAR KMEM 232154Z 33005KT 10SM SCT023 BKN065 BKN250 18/16 A3019 RMK AO2 SLP221 T01780156 $
Observed Flight Rules
Feb-23 @ 21:54 UTC
(39 minutes ago)
VFR
Wind Visibility
330° at 5 knots 10 miles
Clouds
  • Scattered at 2,300' AGL
  • Broken at 6,500' AGL
  • Broken at 25,000' AGL
Temperature Dewpoint
18°C / 64°F 16°C / 61°F
Humidity Altimeter Pressure
88% 30.19" Hg 1022.1 hPa